sensor_id;sensor_type;location;lat;lon;timestamp;temperature;humidity
11188;DHT22;5650;52.700;7.306;2024-03-06T00:00:49;7.50;99.90
11188;DHT22;5650;52.700;7.306;2024-03-06T00:03:24;7.70;99.90
11188;DHT22;5650;52.700;7.306;2024-03-06T00:05:54;7.80;99.90
11188;DHT22;5650;52.700;7.306;2024-03-06T00:08:34;7.80;99.90
11188;DHT22;5650;52.700;7.306;2024-03-06T00:11:13;7.70;99.90
11188;DHT22;5650;52.700;7.306;2024-03-06T00:13:41;7.70;99.90
11188;DHT22;5650;52.700;7.306;2024-03-06T00:16:24;7.60;99.90
11188;DHT22;5650;52.700;7.306;2024-03-06T00:18:52;7.50;99.90
11188;DHT22;5650;52.700;7.306;2024-03-06T00:21:25;7.70;99.90
11188;DHT22;5650;52.700;7.306;2024-03-06T00:23:54;7.60;99.90
11188;DHT22;5650;52.700;7.306;2024-03-06T00:26:23;7.60;99.90
11188;DHT22;5650;52.700;7.306;2024-03-06T00:28:52;7.70;99.90
11188;DHT22;5650;52.700;7.306;2024-03-06T00:31:19;7.80;99.90
11188;DHT22;5650;52.700;7.306;2024-03-06T00:33:49;7.70;99.90
11188;DHT22;5650;52.700;7.306;2024-03-06T00:36:19;7.60;99.90
11188;DHT22;5650;52.700;7.306;2024-03-06T00:38:48;7.80;99.90
11188;DHT22;5650;52.700;7.306;2024-03-06T00:41:15;7.80;99.90
11188;DHT22;5650;52.700;7.306;2024-03-06T00:43:44;7.70;99.90
11188;DHT22;5650;52.700;7.306;2024-03-06T00:46:11;7.50;99.90
11188;DHT22;5650;52.700;7.306;2024-03-06T00:48:38;7.40;99.90
11188;DHT22;5650;52.700;7.306;2024-03-06T00:51:08;7.60;99.90
11188;DHT22;5650;52.700;7.306;2024-03-06T00:53:41;7.50;99.90
11188;DHT22;5650;52.700;7.306;2024-03-06T01:02:54;7.60;99.90
11188;DHT22;5650;52.700;7.306;2024-03-06T01:05:21;7.80;99.90
11188;DHT22;5650;52.700;7.306;2024-03-06T01:07:51;7.70;99.90
11188;DHT22;5650;52.700;7.306;2024-03-06T01:10:20;7.80;99.90
11188;DHT22;5650;52.700;7.306;2024-03-06T01:12:53;7.80;99.90
11188;DHT22;5650;52.700;7.306;2024-03-06T01:15:23;7.60;99.90
11188;DHT22;5650;52.700;7.306;2024-03-06T01:17:50;7.60;99.90
11188;DHT22;5650;52.700;7.306;2024-03-06T01:20:19;7.60;99.90
11188;DHT22;5650;52.700;7.306;2024-03-06T01:22:52;7.70;99.90
11188;DHT22;5650;52.700;7.306;2024-03-06T01:25:19;7.80;99.90
11188;DHT22;5650;52.700;7.306;2024-03-06T01:27:48;7.70;99.90
11188;DHT22;5650;52.700;7.306;2024-03-06T01:30:21;7.80;99.90
11188;DHT22;5650;52.700;7.306;2024-03-06T01:32:57;7.60;99.90
11188;DHT22;5650;52.700;7.306;2024-03-06T01:35:28;7.50;99.90
11188;DHT22;5650;52.700;7.306;2024-03-06T01:37:55;7.40;99.90
11188;DHT22;5650;52.700;7.306;2024-03-06T01:40:24;7.50;99.90
11188;DHT22;5650;52.700;7.306;2024-03-06T01:42:54;7.70;99.90
11188;DHT22;5650;52.700;7.306;2024-03-06T01:45:24;7.80;99.90
11188;DHT22;5650;52.700;7.306;2024-03-06T01:47:52;7.70;99.90
11188;DHT22;5650;52.700;7.306;2024-03-06T01:50:19;7.70;99.90
11188;DHT22;5650;52.700;7.306;2024-03-06T01:52:49;7.70;99.90
11188;DHT22;5650;52.700;7.306;2024-03-06T01:55:17;7.70;99.90
11188;DHT22;5650;52.700;7.306;2024-03-06T01:57:45;7.80;99.90
11188;DHT22;5650;52.700;7.306;2024-03-06T02:00:12;7.90;99.90
11188;DHT22;5650;52.700;7.306;2024-03-06T02:02:42;7.80;99.90
11188;DHT22;5650;52.700;7.306;2024-03-06T02:05:09;7.80;99.90
11188;DHT22;5650;52.700;7.306;2024-03-06T02:07:39;7.70;99.90
11188;DHT22;5650;52.700;7.306;2024-03-06T02:10:08;7.70;99.90
11188;DHT22;5650;52.700;7.306;2024-03-06T02:12:38;7.80;99.90
11188;DHT22;5650;52.700;7.306;2024-03-06T02:15:15;7.80;99.90
11188;DHT22;5650;52.700;7.306;2024-03-06T02:17:48;7.80;99.90
11188;DHT22;5650;52.700;7.306;2024-03-06T02:20:23;7.60;99.90
11188;DHT22;5650;52.700;7.306;2024-03-06T02:22:53;7.60;99.90
11188;DHT22;5650;52.700;7.306;2024-03-06T02:25:23;7.70;99.90
11188;DHT22;5650;52.700;7.306;2024-03-06T02:27:50;7.60;99.90
11188;DHT22;5650;52.700;7.306;2024-03-06T02:30:22;7.60;99.90
11188;DHT22;5650;52.700;7.306;2024-03-06T02:32:49;7.80;99.90
11188;DHT22;5650;52.700;7.306;2024-03-06T02:35:24;7.90;99.90
11188;DHT22;5650;52.700;7.306;2024-03-06T02:37:51;7.90;99.90
11188;DHT22;5650;52.700;7.306;2024-03-06T02:40:20;7.90;99.90
11188;DHT22;5650;52.700;7.306;2024-03-06T02:42:56;8.00;99.90
11188;DHT22;5650;52.700;7.306;2024-03-06T02:45:24;7.90;99.90
11188;DHT22;5650;52.700;7.306;2024-03-06T02:47:54;7.50;99.90
11188;DHT22;5650;52.700;7.306;2024-03-06T02:50:31;7.50;99.90
11188;DHT22;5650;52.700;7.306;2024-03-06T02:52:58;7.40;99.90
11188;DHT22;5650;52.700;7.306;2024-03-06T02:55:25;7.50;99.90
11188;DHT22;5650;52.700;7.306;2024-03-06T02:57:55;7.50;99.90
11188;DHT22;5650;52.700;7.306;2024-03-06T03:00:23;7.60;99.90
11188;DHT22;5650;52.700;7.306;2024-03-06T03:02:56;7.70;99.90
11188;DHT22;5650;52.700;7.306;2024-03-06T03:05:23;7.60;99.90
11188;DHT22;5650;52.700;7.306;2024-03-06T03:07:52;7.70;99.90
11188;DHT22;5650;52.700;7.306;2024-03-06T03:10:19;7.70;99.90
11188;DHT22;5650;52.700;7.306;2024-03-06T03:12:53;7.60;99.90
11188;DHT22;5650;52.700;7.306;2024-03-06T03:15:23;7.60;99.90
11188;DHT22;5650;52.700;7.306;2024-03-06T03:17:53;7.60;99.90
11188;DHT22;5650;52.700;7.306;2024-03-06T03:20:20;7.50;99.90
11188;DHT22;5650;52.700;7.306;2024-03-06T03:22:55;7.20;99.90
11188;DHT22;5650;52.700;7.306;2024-03-06T03:25:22;7.20;99.90
11188;DHT22;5650;52.700;7.306;2024-03-06T03:27:55;7.40;99.90
11188;DHT22;5650;52.700;7.306;2024-03-06T03:30:26;7.50;99.90
11188;DHT22;5650;52.700;7.306;2024-03-06T03:33:02;7.50;99.90
11188;DHT22;5650;52.700;7.306;2024-03-06T03:35:29;7.50;99.90
11188;DHT22;5650;52.700;7.306;2024-03-06T03:37:59;7.60;99.90
11188;DHT22;5650;52.700;7.306;2024-03-06T03:40:26;7.70;99.90
11188;DHT22;5650;52.700;7.306;2024-03-06T03:42:53;7.70;99.90
11188;DHT22;5650;52.700;7.306;2024-03-06T03:45:24;7.60;99.90
11188;DHT22;5650;52.700;7.306;2024-03-06T03:47:53;7.30;99.90
11188;DHT22;5650;52.700;7.306;2024-03-06T03:50:23;7.50;99.90
11188;DHT22;5650;52.700;7.306;2024-03-06T03:52:50;7.70;99.90
11188;DHT22;5650;52.700;7.306;2024-03-06T03:55:22;7.90;99.90
11188;DHT22;5650;52.700;7.306;2024-03-06T03:57:49;7.90;99.90
11188;DHT22;5650;52.700;7.306;2024-03-06T04:00:21;8.00;99.90
11188;DHT22;5650;52.700;7.306;2024-03-06T04:02:48;7.60;99.90
11188;DHT22;5650;52.700;7.306;2024-03-06T04:05:15;7.60;99.90
11188;DHT22;5650;52.700;7.306;2024-03-06T04:07:43;7.80;99.90
11188;DHT22;5650;52.700;7.306;2024-03-06T04:10:20;8.00;99.90
11188;DHT22;5650;52.700;7.306;2024-03-06T04:12:54;8.10;99.90
11188;DHT22;5650;52.700;7.306;2024-03-06T04:15:26;8.10;99.90
11188;DHT22;5650;52.700;7.306;2024-03-06T04:17:53;8.10;99.90
11188;DHT22;5650;52.700;7.306;2024-03-06T04:20:20;8.10;99.90
11188;DHT22;5650;52.700;7.306;2024-03-06T04:22:48;8.10;99.90
11188;DHT22;5650;52.700;7.306;2024-03-06T04:25:16;8.10;99.90
11188;DHT22;5650;52.700;7.306;2024-03-06T04:27:54;8.10;99.90
11188;DHT22;5650;52.700;7.306;2024-03-06T04:30:21;8.00;99.90
11188;DHT22;5650;52.700;7.306;2024-03-06T04:32:51;8.10;99.90
11188;DHT22;5650;52.700;7.306;2024-03-06T04:35:18;8.10;99.90
11188;DHT22;5650;52.700;7.306;2024-03-06T04:37:46;8.10;99.90
11188;DHT22;5650;52.700;7.306;2024-03-06T04:40:13;8.10;99.90
11188;DHT22;5650;52.700;7.306;2024-03-06T04:42:45;8.10;99.90
11188;DHT22;5650;52.700;7.306;2024-03-06T04:45:16;8.00;99.90
11188;DHT22;5650;52.700;7.306;2024-03-06T04:47:45;8.10;99.90
11188;DHT22;5650;52.700;7.306;2024-03-06T04:50:13;8.00;99.90
11188;DHT22;5650;52.700;7.306;2024-03-06T04:52:46;8.10;99.90
11188;DHT22;5650;52.700;7.306;2024-03-06T04:55:13;8.00;99.90
11188;DHT22;5650;52.700;7.306;2024-03-06T04:57:45;7.90;99.90
11188;DHT22;5650;52.700;7.306;2024-03-06T05:00:15;7.80;99.90
11188;DHT22;5650;52.700;7.306;2024-03-06T05:02:44;7.90;99.90
11188;DHT22;5650;52.700;7.306;2024-03-06T05:05:16;7.90;99.90
11188;DHT22;5650;52.700;7.306;2024-03-06T05:07:43;7.60;99.90
11188;DHT22;5650;52.700;7.306;2024-03-06T05:10:10;7.70;99.90
11188;DHT22;5650;52.700;7.306;2024-03-06T05:12:43;7.90;99.90
11188;DHT22;5650;52.700;7.306;2024-03-06T05:15:14;8.00;99.90
11188;DHT22;5650;52.700;7.306;2024-03-06T05:17:44;7.80;99.90
11188;DHT22;5650;52.700;7.306;2024-03-06T05:20:12;8.00;99.90
11188;DHT22;5650;52.700;7.306;2024-03-06T05:22:40;8.10;99.90
11188;DHT22;5650;52.700;7.306;2024-03-06T05:25:07;8.00;99.90
11188;DHT22;5650;52.700;7.306;2024-03-06T05:27:34;8.10;99.90
11188;DHT22;5650;52.700;7.306;2024-03-06T05:30:01;8.10;99.90
11188;DHT22;5650;52.700;7.306;2024-03-06T05:32:31;8.00;99.90
11188;DHT22;5650;52.700;7.306;2024-03-06T05:34:58;8.20;99.90
11188;DHT22;5650;52.700;7.306;2024-03-06T05:37:25;8.20;99.90
11188;DHT22;5650;52.700;7.306;2024-03-06T05:39:54;8.10;99.90
11188;DHT22;5650;52.700;7.306;2024-03-06T05:42:21;8.40;99.90
11188;DHT22;5650;52.700;7.306;2024-03-06T05:44:48;8.20;99.90
11188;DHT22;5650;52.700;7.306;2024-03-06T05:47:19;7.70;99.90
11188;DHT22;5650;52.700;7.306;2024-03-06T05:49:48;7.20;99.90
11188;DHT22;5650;52.700;7.306;2024-03-06T05:52:15;6.90;99.90
11188;DHT22;5650;52.700;7.306;2024-03-06T05:54:42;6.60;99.90
11188;DHT22;5650;52.700;7.306;2024-03-06T05:57:09;6.40;99.90
11188;DHT22;5650;52.700;7.306;2024-03-06T05:59:37;6.30;99.90
11188;DHT22;5650;52.700;7.306;2024-03-06T06:02:06;6.10;99.90
11188;DHT22;5650;52.700;7.306;2024-03-06T06:04:33;6.10;99.90
11188;DHT22;5650;52.700;7.306;2024-03-06T06:07:02;6.00;99.90
11188;DHT22;5650;52.700;7.306;2024-03-06T06:09:30;6.00;99.90
11188;DHT22;5650;52.700;7.306;2024-03-06T06:12:07;6.00;99.90
11188;DHT22;5650;52.700;7.306;2024-03-06T06:14:40;6.00;99.90
11188;DHT22;5650;52.700;7.306;2024-03-06T06:17:13;5.90;99.90
11188;DHT22;5650;52.700;7.306;2024-03-06T06:19:42;5.90;99.90
11188;DHT22;5650;52.700;7.306;2024-03-06T06:22:10;5.90;99.90
11188;DHT22;5650;52.700;7.306;2024-03-06T06:24:44;5.90;99.90
11188;DHT22;5650;52.700;7.306;2024-03-06T06:27:14;5.90;99.90
11188;DHT22;5650;52.700;7.306;2024-03-06T06:29:44;5.90;99.90
11188;DHT22;5650;52.700;7.306;2024-03-06T06:32:17;5.90;99.90
11188;DHT22;5650;52.700;7.306;2024-03-06T06:34:47;5.90;99.90
11188;DHT22;5650;52.700;7.306;2024-03-06T06:37:16;5.90;99.90
11188;DHT22;5650;52.700;7.306;2024-03-06T06:39:45;5.90;99.90
11188;DHT22;5650;52.700;7.306;2024-03-06T06:42:18;5.90;99.90
11188;DHT22;5650;52.700;7.306;2024-03-06T06:44:45;5.80;99.90
11188;DHT22;5650;52.700;7.306;2024-03-06T06:47:19;5.80;99.90
11188;DHT22;5650;52.700;7.306;2024-03-06T06:49:46;5.80;99.90
11188;DHT22;5650;52.700;7.306;2024-03-06T06:52:24;5.80;99.90
11188;DHT22;5650;52.700;7.306;2024-03-06T06:54:53;5.90;99.90
11188;DHT22;5650;52.700;7.306;2024-03-06T06:57:21;5.90;99.90
11188;DHT22;5650;52.700;7.306;2024-03-06T06:59:48;5.90;99.90
11188;DHT22;5650;52.700;7.306;2024-03-06T07:02:24;5.90;99.90
11188;DHT22;5650;52.700;7.306;2024-03-06T07:04:57;5.90;99.90
11188;DHT22;5650;52.700;7.306;2024-03-06T07:07:26;5.90;99.90
11188;DHT22;5650;52.700;7.306;2024-03-06T07:09:56;5.90;99.90
11188;DHT22;5650;52.700;7.306;2024-03-06T07:12:24;5.90;99.90
11188;DHT22;5650;52.700;7.306;2024-03-06T07:14:54;5.90;99.90
11188;DHT22;5650;52.700;7.306;2024-03-06T07:17:21;5.90;99.90
11188;DHT22;5650;52.700;7.306;2024-03-06T07:20:05;5.90;99.90
11188;DHT22;5650;52.700;7.306;2024-03-06T07:22:35;5.90;99.90
11188;DHT22;5650;52.700;7.306;2024-03-06T07:25:03;6.00;99.90
11188;DHT22;5650;52.700;7.306;2024-03-06T07:27:34;5.90;99.90
11188;DHT22;5650;52.700;7.306;2024-03-06T07:30:01;5.90;99.90
11188;DHT22;5650;52.700;7.306;2024-03-06T07:32:31;5.90;99.90
11188;DHT22;5650;52.700;7.306;2024-03-06T07:35:07;5.90;99.90
11188;DHT22;5650;52.700;7.306;2024-03-06T07:37:35;5.90;99.90
11188;DHT22;5650;52.700;7.306;2024-03-06T07:40:07;5.90;99.90
11188;DHT22;5650;52.700;7.306;2024-03-06T07:42:35;5.90;99.90
11188;DHT22;5650;52.700;7.306;2024-03-06T07:45:06;6.00;99.90
11188;DHT22;5650;52.700;7.306;2024-03-06T07:47:40;6.00;99.90
11188;DHT22;5650;52.700;7.306;2024-03-06T07:50:11;6.00;99.90
11188;DHT22;5650;52.700;7.306;2024-03-06T07:52:46;6.00;99.90
11188;DHT22;5650;52.700;7.306;2024-03-06T07:55:13;6.00;99.90
11188;DHT22;5650;52.700;7.306;2024-03-06T07:57:43;6.00;99.90
11188;DHT22;5650;52.700;7.306;2024-03-06T08:00:14;6.00;99.90
11188;DHT22;5650;52.700;7.306;2024-03-06T08:02:44;6.00;99.90
11188;DHT22;5650;52.700;7.306;2024-03-06T08:05:15;6.00;99.90
11188;DHT22;5650;52.700;7.306;2024-03-06T08:07:44;6.10;99.90
11188;DHT22;5650;52.700;7.306;2024-03-06T08:10:17;6.10;99.90
11188;DHT22;5650;52.700;7.306;2024-03-06T08:12:47;6.10;99.90
11188;DHT22;5650;52.700;7.306;2024-03-06T08:15:15;6.10;99.90
11188;DHT22;5650;52.700;7.306;2024-03-06T08:17:43;6.20;99.90
11188;DHT22;5650;52.700;7.306;2024-03-06T08:20:11;6.20;99.90
11188;DHT22;5650;52.700;7.306;2024-03-06T08:22:39;6.20;99.90
11188;DHT22;5650;52.700;7.306;2024-03-06T08:25:12;6.20;99.90
11188;DHT22;5650;52.700;7.306;2024-03-06T08:27:40;6.30;99.90
11188;DHT22;5650;52.700;7.306;2024-03-06T08:30:08;6.30;99.90
11188;DHT22;5650;52.700;7.306;2024-03-06T08:32:36;6.40;99.90
11188;DHT22;5650;52.700;7.306;2024-03-06T08:35:04;6.40;99.90
11188;DHT22;5650;52.700;7.306;2024-03-06T08:37:38;6.40;99.90
11188;DHT22;5650;52.700;7.306;2024-03-06T08:40:07;6.50;99.90
11188;DHT22;5650;52.700;7.306;2024-03-06T08:42:37;6.50;99.90
11188;DHT22;5650;52.700;7.306;2024-03-06T08:45:05;6.60;99.90
11188;DHT22;5650;52.700;7.306;2024-03-06T08:47:33;6.60;99.90
11188;DHT22;5650;52.700;7.306;2024-03-06T08:50:00;6.60;99.90
11188;DHT22;5650;52.700;7.306;2024-03-06T08:52:29;6.60;99.90
11188;DHT22;5650;52.700;7.306;2024-03-06T08:54:56;6.60;99.90
11188;DHT22;5650;52.700;7.306;2024-03-06T08:57:23;6.60;99.90
11188;DHT22;5650;52.700;7.306;2024-03-06T08:59:55;6.70;99.90
11188;DHT22;5650;52.700;7.306;2024-03-06T09:02:22;6.80;99.90
11188;DHT22;5650;52.700;7.306;2024-03-06T09:04:55;6.90;99.90
11188;DHT22;5650;52.700;7.306;2024-03-06T09:07:23;6.90;99.90
11188;DHT22;5650;52.700;7.306;2024-03-06T09:09:57;6.90;99.90
11188;DHT22;5650;52.700;7.306;2024-03-06T09:12:27;6.90;99.90
11188;DHT22;5650;52.700;7.306;2024-03-06T09:15:00;6.90;99.90
11188;DHT22;5650;52.700;7.306;2024-03-06T09:17:27;6.90;99.90
11188;DHT22;5650;52.700;7.306;2024-03-06T09:19:54;6.90;99.90
11188;DHT22;5650;52.700;7.306;2024-03-06T09:22:24;6.80;99.90
11188;DHT22;5650;52.700;7.306;2024-03-06T09:24:55;6.70;99.90
11188;DHT22;5650;52.700;7.306;2024-03-06T09:27:28;6.70;99.90
11188;DHT22;5650;52.700;7.306;2024-03-06T09:29:55;6.70;99.90
11188;DHT22;5650;52.700;7.306;2024-03-06T09:32:24;6.70;99.90
11188;DHT22;5650;52.700;7.306;2024-03-06T09:34:55;6.70;99.90
11188;DHT22;5650;52.700;7.306;2024-03-06T09:37:22;6.80;99.90
11188;DHT22;5650;52.700;7.306;2024-03-06T09:39:49;6.80;99.90
11188;DHT22;5650;52.700;7.306;2024-03-06T09:42:16;6.80;99.90
11188;DHT22;5650;52.700;7.306;2024-03-06T09:44:47;6.90;99.90
11188;DHT22;5650;52.700;7.306;2024-03-06T09:47:21;7.00;99.90
11188;DHT22;5650;52.700;7.306;2024-03-06T09:49:52;7.10;99.90
11188;DHT22;5650;52.700;7.306;2024-03-06T09:52:28;7.10;99.90
11188;DHT22;5650;52.700;7.306;2024-03-06T09:54:57;7.20;99.90
11188;DHT22;5650;52.700;7.306;2024-03-06T09:57:25;7.20;99.90
11188;DHT22;5650;52.700;7.306;2024-03-06T09:59:52;7.40;99.90
11188;DHT22;5650;52.700;7.306;2024-03-06T10:02:30;7.50;99.90
11188;DHT22;5650;52.700;7.306;2024-03-06T10:05:01;7.60;99.90
11188;DHT22;5650;52.700;7.306;2024-03-06T10:07:29;7.60;99.90
11188;DHT22;5650;52.700;7.306;2024-03-06T10:09:56;7.60;99.90
11188;DHT22;5650;52.700;7.306;2024-03-06T10:12:24;7.60;99.90
11188;DHT22;5650;52.700;7.306;2024-03-06T10:14:53;7.70;99.90
11188;DHT22;5650;52.700;7.306;2024-03-06T10:17:25;7.70;99.90
11188;DHT22;5650;52.700;7.306;2024-03-06T10:19:53;7.70;99.90
11188;DHT22;5650;52.700;7.306;2024-03-06T10:22:23;7.70;99.90
11188;DHT22;5650;52.700;7.306;2024-03-06T10:24:55;7.80;99.90
11188;DHT22;5650;52.700;7.306;2024-03-06T10:27:24;7.80;99.90
11188;DHT22;5650;52.700;7.306;2024-03-06T10:30:03;7.80;99.90
11188;DHT22;5650;52.700;7.306;2024-03-06T10:32:34;7.90;99.90
11188;DHT22;5650;52.700;7.306;2024-03-06T10:35:20;7.90;99.90
11188;DHT22;5650;52.700;7.306;2024-03-06T10:37:50;7.90;99.90
11188;DHT22;5650;52.700;7.306;2024-03-06T10:40:19;7.90;99.90
11188;DHT22;5650;52.700;7.306;2024-03-06T10:42:47;8.00;99.90
11188;DHT22;5650;52.700;7.306;2024-03-06T10:45:15;8.00;99.90
11188;DHT22;5650;52.700;7.306;2024-03-06T10:47:46;8.10;99.90
11188;DHT22;5650;52.700;7.306;2024-03-06T10:50:18;8.10;99.90
11188;DHT22;5650;52.700;7.306;2024-03-06T10:52:49;8.20;99.90
11188;DHT22;5650;52.700;7.306;2024-03-06T10:55:22;8.20;99.90
11188;DHT22;5650;52.700;7.306;2024-03-06T10:57:51;8.30;99.90
11188;DHT22;5650;52.700;7.306;2024-03-06T11:00:25;8.30;99.90
11188;DHT22;5650;52.700;7.306;2024-03-06T11:02:57;8.40;99.90
11188;DHT22;5650;52.700;7.306;2024-03-06T11:05:28;8.50;99.90
11188;DHT22;5650;52.700;7.306;2024-03-06T11:07:57;8.40;99.90
11188;DHT22;5650;52.700;7.306;2024-03-06T11:10:32;8.40;99.90
11188;DHT22;5650;52.700;7.306;2024-03-06T11:12:59;8.30;99.90
11188;DHT22;5650;52.700;7.306;2024-03-06T11:15:27;8.30;99.90
11188;DHT22;5650;52.700;7.306;2024-03-06T11:17:54;8.30;99.90
11188;DHT22;5650;52.700;7.306;2024-03-06T11:20:22;8.40;99.90
11188;DHT22;5650;52.700;7.306;2024-03-06T11:23:09;8.50;99.90
11188;DHT22;5650;52.700;7.306;2024-03-06T11:26:01;8.50;99.90
11188;DHT22;5650;52.700;7.306;2024-03-06T11:28:33;8.50;99.90
11188;DHT22;5650;52.700;7.306;2024-03-06T11:31:01;8.60;99.90
11188;DHT22;5650;52.700;7.306;2024-03-06T11:33:37;8.70;99.90
11188;DHT22;5650;52.700;7.306;2024-03-06T11:36:18;8.70;99.90
11188;DHT22;5650;52.700;7.306;2024-03-06T11:38:55;8.80;99.90
11188;DHT22;5650;52.700;7.306;2024-03-06T11:41:26;9.00;99.90
11188;DHT22;5650;52.700;7.306;2024-03-06T11:44:05;9.10;99.90
11188;DHT22;5650;52.700;7.306;2024-03-06T11:46:42;9.30;99.90
11188;DHT22;5650;52.700;7.306;2024-03-06T11:49:15;9.40;99.90
11188;DHT22;5650;52.700;7.306;2024-03-06T11:51:44;9.40;99.90
11188;DHT22;5650;52.700;7.306;2024-03-06T11:54:14;9.50;99.90
11188;DHT22;5650;52.700;7.306;2024-03-06T11:56:44;9.40;99.90
11188;DHT22;5650;52.700;7.306;2024-03-06T11:59:12;9.30;99.90
11188;DHT22;5650;52.700;7.306;2024-03-06T12:01:41;9.30;99.90
11188;DHT22;5650;52.700;7.306;2024-03-06T12:04:08;9.20;99.90
11188;DHT22;5650;52.700;7.306;2024-03-06T12:06:36;9.20;99.90
11188;DHT22;5650;52.700;7.306;2024-03-06T12:09:04;9.20;99.90
11188;DHT22;5650;52.700;7.306;2024-03-06T12:11:38;9.20;99.90
11188;DHT22;5650;52.700;7.306;2024-03-06T12:14:05;9.30;99.90
11188;DHT22;5650;52.700;7.306;2024-03-06T12:16:33;9.40;99.90
11188;DHT22;5650;52.700;7.306;2024-03-06T12:19:00;9.40;99.90
11188;DHT22;5650;52.700;7.306;2024-03-06T12:21:30;9.40;99.90
11188;DHT22;5650;52.700;7.306;2024-03-06T12:24:04;9.50;99.90
11188;DHT22;5650;52.700;7.306;2024-03-06T12:26:32;9.60;99.90
11188;DHT22;5650;52.700;7.306;2024-03-06T12:29:10;9.70;99.90
11188;DHT22;5650;52.700;7.306;2024-03-06T12:31:38;9.60;99.90
11188;DHT22;5650;52.700;7.306;2024-03-06T12:34:05;9.60;99.90
11188;DHT22;5650;52.700;7.306;2024-03-06T12:36:33;9.70;99.90
11188;DHT22;5650;52.700;7.306;2024-03-06T12:39:01;9.60;99.90
11188;DHT22;5650;52.700;7.306;2024-03-06T12:41:28;9.60;99.90
11188;DHT22;5650;52.700;7.306;2024-03-06T12:43:56;9.60;99.90
11188;DHT22;5650;52.700;7.306;2024-03-06T12:46:25;9.60;99.90
11188;DHT22;5650;52.700;7.306;2024-03-06T12:48:58;9.60;99.90
11188;DHT22;5650;52.700;7.306;2024-03-06T12:51:25;9.60;99.90
11188;DHT22;5650;52.700;7.306;2024-03-06T12:54:27;9.60;99.90
11188;DHT22;5650;52.700;7.306;2024-03-06T12:56:54;9.70;99.90
11188;DHT22;5650;52.700;7.306;2024-03-06T12:59:41;9.80;99.90
11188;DHT22;5650;52.700;7.306;2024-03-06T13:02:09;9.80;99.90
11188;DHT22;5650;52.700;7.306;2024-03-06T13:04:36;9.80;99.90
11188;DHT22;5650;52.700;7.306;2024-03-06T13:07:04;9.80;99.90
11188;DHT22;5650;52.700;7.306;2024-03-06T13:09:33;9.80;99.90
11188;DHT22;5650;52.700;7.306;2024-03-06T13:12:00;9.90;99.90
11188;DHT22;5650;52.700;7.306;2024-03-06T13:14:31;9.90;99.90
11188;DHT22;5650;52.700;7.306;2024-03-06T13:17:01;9.80;99.90
11188;DHT22;5650;52.700;7.306;2024-03-06T13:19:29;9.80;99.90
11188;DHT22;5650;52.700;7.306;2024-03-06T13:21:59;9.90;99.90
11188;DHT22;5650;52.700;7.306;2024-03-06T13:24:27;9.80;99.90
11188;DHT22;5650;52.700;7.306;2024-03-06T13:26:57;9.80;99.90
11188;DHT22;5650;52.700;7.306;2024-03-06T13:29:30;9.80;99.90
11188;DHT22;5650;52.700;7.306;2024-03-06T13:31:57;9.80;99.90
11188;DHT22;5650;52.700;7.306;2024-03-06T13:34:24;9.80;99.90
11188;DHT22;5650;52.700;7.306;2024-03-06T13:36:56;9.90;99.90
11188;DHT22;5650;52.700;7.306;2024-03-06T13:39:25;9.80;99.90
11188;DHT22;5650;52.700;7.306;2024-03-06T13:41:52;9.80;99.90
11188;DHT22;5650;52.700;7.306;2024-03-06T13:44:25;9.90;99.90
11188;DHT22;5650;52.700;7.306;2024-03-06T13:46:58;9.90;99.90
11188;DHT22;5650;52.700;7.306;2024-03-06T13:49:39;9.90;99.90
11188;DHT22;5650;52.700;7.306;2024-03-06T13:52:11;9.90;99.90
11188;DHT22;5650;52.700;7.306;2024-03-06T13:54:42;9.90;99.90
11188;DHT22;5650;52.700;7.306;2024-03-06T13:57:13;9.90;99.90
11188;DHT22;5650;52.700;7.306;2024-03-06T13:59:40;9.80;99.90
11188;DHT22;5650;52.700;7.306;2024-03-06T14:02:14;9.80;99.90
11188;DHT22;5650;52.700;7.306;2024-03-06T14:04:50;9.80;99.90
11188;DHT22;5650;52.700;7.306;2024-03-06T14:07:27;9.90;99.90
11188;DHT22;5650;52.700;7.306;2024-03-06T14:09:54;9.90;99.90
11188;DHT22;5650;52.700;7.306;2024-03-06T14:12:25;9.90;99.90
11188;DHT22;5650;52.700;7.306;2024-03-06T14:14:53;9.90;99.90
11188;DHT22;5650;52.700;7.306;2024-03-06T14:17:23;9.80;99.90
11188;DHT22;5650;52.700;7.306;2024-03-06T14:19:52;9.70;99.90
11188;DHT22;5650;52.700;7.306;2024-03-06T14:22:21;9.60;99.90
11188;DHT22;5650;52.700;7.306;2024-03-06T14:24:48;9.50;99.90
11188;DHT22;5650;52.700;7.306;2024-03-06T14:27:16;9.50;99.90
11188;DHT22;5650;52.700;7.306;2024-03-06T14:29:43;9.40;99.90
11188;DHT22;5650;52.700;7.306;2024-03-06T14:32:14;9.40;99.90
11188;DHT22;5650;52.700;7.306;2024-03-06T14:34:44;9.40;99.90
11188;DHT22;5650;52.700;7.306;2024-03-06T14:37:12;9.40;99.90
11188;DHT22;5650;52.700;7.306;2024-03-06T14:39:41;9.50;99.90
11188;DHT22;5650;52.700;7.306;2024-03-06T14:42:08;9.40;99.90
11188;DHT22;5650;52.700;7.306;2024-03-06T14:44:39;9.50;99.90
11188;DHT22;5650;52.700;7.306;2024-03-06T14:47:12;9.60;99.90
11188;DHT22;5650;52.700;7.306;2024-03-06T14:49:41;9.50;99.90
11188;DHT22;5650;52.700;7.306;2024-03-06T14:52:10;9.40;99.90
11188;DHT22;5650;52.700;7.306;2024-03-06T14:54:38;9.50;99.90
11188;DHT22;5650;52.700;7.306;2024-03-06T14:57:08;9.50;99.90
11188;DHT22;5650;52.700;7.306;2024-03-06T14:59:38;9.50;99.90
11188;DHT22;5650;52.700;7.306;2024-03-06T15:02:11;9.40;99.90
11188;DHT22;5650;52.700;7.306;2024-03-06T15:04:38;9.50;99.90
11188;DHT22;5650;52.700;7.306;2024-03-06T15:07:08;9.50;99.90
11188;DHT22;5650;52.700;7.306;2024-03-06T15:09:41;9.60;99.90
11188;DHT22;5650;52.700;7.306;2024-03-06T15:12:10;9.60;99.90
11188;DHT22;5650;52.700;7.306;2024-03-06T15:14:38;9.70;99.90
11188;DHT22;5650;52.700;7.306;2024-03-06T15:17:08;9.70;99.90
11188;DHT22;5650;52.700;7.306;2024-03-06T15:19:35;9.70;99.90
11188;DHT22;5650;52.700;7.306;2024-03-06T15:22:09;9.80;99.90
11188;DHT22;5650;52.700;7.306;2024-03-06T15:24:36;9.90;99.90
11188;DHT22;5650;52.700;7.306;2024-03-06T15:27:04;9.80;99.90
11188;DHT22;5650;52.700;7.306;2024-03-06T15:29:32;9.80;99.90
11188;DHT22;5650;52.700;7.306;2024-03-06T15:32:00;9.70;99.90
11188;DHT22;5650;52.700;7.306;2024-03-06T15:34:27;9.70;99.90
11188;DHT22;5650;52.700;7.306;2024-03-06T15:36:54;9.80;99.90
11188;DHT22;5650;52.700;7.306;2024-03-06T15:39:21;9.60;99.90
11188;DHT22;5650;52.700;7.306;2024-03-06T15:41:48;9.50;99.90
11188;DHT22;5650;52.700;7.306;2024-03-06T15:44:15;9.50;99.90
11188;DHT22;5650;52.700;7.306;2024-03-06T15:46:44;9.30;99.90
11188;DHT22;5650;52.700;7.306;2024-03-06T15:49:19;9.30;99.90
11188;DHT22;5650;52.700;7.306;2024-03-06T15:51:47;9.20;99.90
11188;DHT22;5650;52.700;7.306;2024-03-06T15:54:14;9.30;99.90
11188;DHT22;5650;52.700;7.306;2024-03-06T15:56:41;9.30;99.90
11188;DHT22;5650;52.700;7.306;2024-03-06T15:59:08;9.30;99.90
11188;DHT22;5650;52.700;7.306;2024-03-06T16:01:35;9.30;99.90
11188;DHT22;5650;52.700;7.306;2024-03-06T16:04:04;9.30;99.90
11188;DHT22;5650;52.700;7.306;2024-03-06T16:06:31;9.20;99.90
11188;DHT22;5650;52.700;7.306;2024-03-06T16:09:00;9.20;99.90
11188;DHT22;5650;52.700;7.306;2024-03-06T16:11:28;9.20;99.90
11188;DHT22;5650;52.700;7.306;2024-03-06T16:13:55;9.20;99.90
11188;DHT22;5650;52.700;7.306;2024-03-06T16:16:25;9.20;99.90
11188;DHT22;5650;52.700;7.306;2024-03-06T16:18:52;9.10;99.90
11188;DHT22;5650;52.700;7.306;2024-03-06T16:21:21;9.10;99.90
11188;DHT22;5650;52.700;7.306;2024-03-06T16:23:48;8.90;99.90
11188;DHT22;5650;52.700;7.306;2024-03-06T16:26:15;8.90;99.90